Time;durP1;ratioP1;P1;durP2;ratioP2;P2;SDS_P1;SDS_P2;PMS_P1;PMS_P2;Temp;Humidity;BMP_temperature;BMP_pressure;BME280_temperature;BME280_humidity;BME280_pressure;Samples;Min_cycle;Max_cycle;Signal;HPM_P1;HPM_P2
2022/03/07 00:02:12;;;;;;;5.27;2.63;;;2.50;99.90;;;;;;5033667;28;20043;-79
2022/03/07 00:04:38;;;;;;;4.22;2.88;;;2.40;99.90;;;;;;5049332;28;20041;-79
2022/03/07 00:07:04;;;;;;;8.13;2.85;;;2.30;99.90;;;;;;5033377;28;20052;-79
2022/03/07 00:09:29;;;;;;;4.47;2.88;;;3.10;99.90;;;;;;5034084;28;20033;-79
2022/03/07 00:11:55;;;;;;;6.03;3.03;;;2.30;99.90;;;;;;5050841;28;20044;-79
2022/03/07 00:14:21;;;;;;;6.65;2.90;;;2.30;99.90;;;;;;5050055;28;20508;-78
2022/03/07 00:16:47;;;;;;;4.85;3.05;;;2.20;99.90;;;;;;5050284;28;20055;-79
2022/03/07 00:19:13;;;;;;;6.15;2.70;;;2.10;99.90;;;;;;5050919;28;20469;-79
2022/03/07 00:21:39;;;;;;;5.22;2.80;;;2.00;99.90;;;;;;5034028;28;20063;-79
2022/03/07 00:24:07;;;;;;;4.88;2.90;;;2.00;99.90;;;;;;5034205;28;20040;-77
2022/03/07 00:26:33;;;;;;;4.70;2.40;;;2.00;99.90;;;;;;5033804;28;20036;-79
2022/03/07 00:28:59;;;;;;;4.07;2.25;;;2.00;99.90;;;;;;5050774;28;20041;-78
2022/03/07 00:31:25;;;;;;;5.97;3.13;;;2.00;99.90;;;;;;5033833;28;20052;-79
2022/03/07 00:33:51;;;;;;;7.07;2.60;;;1.90;99.90;;;;;;5034203;28;20174;-79
2022/03/07 00:36:18;;;;;;;5.95;2.92;;;1.90;99.90;;;;;;5050365;28;20385;-78
2022/03/07 00:38:44;;;;;;;3.60;2.78;;;2.80;99.90;;;;;;5047925;28;20037;-79
2022/03/07 00:41:11;;;;;;;3.63;2.63;;;1.90;99.90;;;;;;5050218;28;20043;-79
2022/03/07 00:43:37;;;;;;;4.88;2.78;;;1.80;99.90;;;;;;5050091;28;20536;-79
2022/03/07 00:46:03;;;;;;;6.03;2.70;;;1.70;99.90;;;;;;5050175;28;20037;-78
2022/03/07 00:48:28;;;;;;;6.10;2.33;;;1.70;99.90;;;;;;5050036;28;20037;-79
2022/03/07 00:50:54;;;;;;;5.18;2.72;;;1.70;99.90;;;;;;5050410;28;20037;-79
2022/03/07 00:53:23;;;;;;;4.03;2.77;;;1.70;99.90;;;;;;5034023;28;20040;-79
2022/03/07 00:55:49;;;;;;;8.15;3.00;;;1.70;99.90;;;;;;5033194;28;20314;-79
2022/03/07 00:58:15;;;;;;;5.82;3.30;;;1.70;99.90;;;;;;5050582;28;20520;-79
2022/03/07 01:00:41;;;;;;;7.33;3.03;;;1.70;99.90;;;;;;5049625;28;20037;-79
2022/03/07 01:03:09;;;;;;;6.35;2.90;;;1.70;99.90;;;;;;5049952;28;20282;-79
2022/03/07 01:05:35;;;;;;;5.20;2.72;;;1.70;99.90;;;;;;5049568;28;20036;-79
2022/03/07 01:08:00;;;;;;;5.93;2.80;;;1.70;99.90;;;;;;5049984;28;20503;-79
2022/03/07 01:10:27;;;;;;;4.57;2.80;;;2.40;99.90;;;;;;5049844;28;20040;-79
2022/03/07 01:12:53;;;;;;;6.25;2.65;;;1.60;99.90;;;;;;5049453;28;20051;-79
2022/03/07 01:15:19;;;;;;;3.53;2.67;;;1.70;99.90;;;;;;5032760;28;20037;-79
2022/03/07 01:17:45;;;;;;;5.43;2.67;;;2.40;99.90;;;;;;5033143;28;20037;-79
2022/03/07 01:20:11;;;;;;;8.52;3.22;;;1.40;99.90;;;;;;5033184;28;20036;-78
2022/03/07 01:22:38;;;;;;;7.63;2.78;;;1.40;99.90;;;;;;5049341;28;20044;-78
2022/03/07 01:25:04;;;;;;;;;;;1.40;99.90;;;;;;5050082;28;20040;-78
2022/03/07 01:27:30;;;;;;;6.38;2.90;;;1.30;99.90;;;;;;5049695;28;19917;-78
2022/03/07 01:29:56;;;;;;;6.85;3.20;;;1.30;99.90;;;;;;5032819;28;20060;-79
2022/03/07 01:32:23;;;;;;;7.25;2.95;;;1.30;99.90;;;;;;5049428;28;20460;-78
2022/03/07 01:34:48;;;;;;;6.22;3.00;;;1.30;99.90;;;;;;5049442;28;20041;-79
2022/03/07 01:37:14;;;;;;;5.07;3.35;;;1.30;99.90;;;;;;5049909;28;20037;-79
2022/03/07 01:39:40;;;;;;;5.85;3.47;;;1.30;99.90;;;;;;5032361;28;20033;-79
2022/03/07 01:42:06;;;;;;;6.65;3.20;;;1.30;99.90;;;;;;5049252;28;20080;-79
2022/03/07 01:44:33;;;;;;;8.50;4.03;;;1.30;99.90;;;;;;5049434;28;20037;-79
2022/03/07 01:46:58;;;;;;;5.60;3.95;;;1.30;99.90;;;;;;5049424;28;20032;-79
2022/03/07 01:49:25;;;;;;;9.82;4.00;;;2.10;99.90;;;;;;5049445;28;20032;-79
2022/03/07 01:51:51;;;;;;;5.35;3.72;;;1.30;99.90;;;;;;5049080;28;20537;-79
2022/03/07 01:54:18;;;;;;;;;;;1.30;99.90;;;;;;5050225;28;20045;-79
2022/03/07 01:56:46;;;;;;;5.97;3.30;;;1.20;99.90;;;;;;5048890;28;20011;-78
2022/03/07 01:59:33;;;;;;;3.92;3.10;;;1.20;99.90;;;;;;5049197;28;20060;-79
2022/03/07 02:02:00;;;;;;;6.30;3.00;;;1.20;99.90;;;;;;5030540;28;20040;-78
2022/03/07 02:04:26;;;;;;;5.72;2.90;;;1.10;99.90;;;;;;5032508;28;20086;-78
2022/03/07 02:06:52;;;;;;;4.15;3.17;;;1.00;99.90;;;;;;5050391;28;20408;-79
2022/03/07 02:09:17;;;;;;;5.30;3.40;;;0.90;99.90;;;;;;5049503;28;20403;-79
2022/03/07 02:11:43;;;;;;;5.82;3.00;;;0.80;99.90;;;;;;5048549;28;20512;-79
2022/03/07 02:14:11;;;;;;;6.80;3.40;;;0.80;99.90;;;;;;5049377;28;20128;-79
2022/03/07 02:16:37;;;;;;;5.45;3.53;;;0.70;99.90;;;;;;5048700;28;20037;-79
2022/03/07 02:19:03;;;;;;;8.75;3.92;;;0.70;99.90;;;;;;5049443;28;20187;-79
2022/03/07 02:21:34;;;;;;;8.88;3.72;;;0.70;99.90;;;;;;5049192;28;20120;-79
2022/03/07 02:24:00;;;;;;;5.63;3.47;;;0.60;99.90;;;;;;5046435;28;20072;-79
2022/03/07 02:26:25;;;;;;;6.68;3.67;;;0.70;99.90;;;;;;5049237;28;20084;-79
2022/03/07 02:28:51;;;;;;;4.78;3.70;;;0.70;99.90;;;;;;5048613;28;20060;-78
2022/03/07 02:31:19;;;;;;;5.32;3.47;;;0.60;99.90;;;;;;5049257;28;20057;-78
2022/03/07 02:33:47;;;;;;;6.38;3.83;;;0.50;99.90;;;;;;5048353;28;20103;-79
2022/03/07 02:36:13;;;;;;;8.00;4.25;;;0.40;99.90;;;;;;5049152;28;20524;-78
2022/03/07 02:38:38;;;;;;;5.63;3.60;;;0.30;99.90;;;;;;5052249;28;20037;-78
2022/03/07 02:41:04;;;;;;;5.82;3.30;;;0.30;99.90;;;;;;5053085;28;20110;-79
2022/03/07 02:43:30;;;;;;;7.00;3.63;;;0.20;99.90;;;;;;5052730;28;20040;-79
2022/03/07 02:45:58;;;;;;;8.67;3.47;;;0.20;99.90;;;;;;5050034;28;20048;-79
2022/03/07 02:48:24;;;;;;;4.10;2.83;;;0.20;99.90;;;;;;5053565;28;20303;-78
2022/03/07 02:50:50;;;;;;;5.57;3.25;;;0.20;99.90;;;;;;5052407;28;20056;-78
2022/03/07 02:53:16;;;;;;;6.40;3.28;;;0.50;99.90;;;;;;5052464;28;20076;-77
2022/03/07 02:55:42;;;;;;;5.65;3.67;;;0.20;99.90;;;;;;5049446;28;20037;-77
2022/03/07 02:58:08;;;;;;;5.55;3.20;;;0.20;99.90;;;;;;5052669;28;20033;-78
2022/03/07 03:00:33;;;;;;;6.15;3.25;;;0.20;99.90;;;;;;5035986;28;20032;-78
2022/03/07 03:02:59;;;;;;;10.05;4.00;;;0.20;99.90;;;;;;5052141;28;20127;-78
2022/03/07 03:05:25;;;;;;;6.63;3.45;;;1.30;99.90;;;;;;5052735;28;20048;-79
2022/03/07 03:07:51;;;;;;;5.23;3.17;;;0.20;99.90;;;;;;5049871;28;20080;-79
2022/03/07 03:10:18;;;;;;;5.13;3.30;;;0.10;99.90;;;;;;5052689;28;20697;-79
2022/03/07 03:12:44;;;;;;;5.22;3.33;;;0.10;99.90;;;;;;5052179;28;20052;-79
2022/03/07 03:15:10;;;;;;;5.40;3.85;;;0.20;99.90;;;;;;5052416;28;20056;-79
2022/03/07 03:17:39;;;;;;;8.48;3.92;;;0.20;99.90;;;;;;5052606;28;20377;-79
2022/03/07 03:20:06;;;;;;;8.52;3.90;;;1.00;99.90;;;;;;5051614;28;20115;-79
2022/03/07 03:22:32;;;;;;;8.45;4.20;;;0.30;99.90;;;;;;5035627;28;20037;-78
2022/03/07 03:24:58;;;;;;;6.72;3.70;;;0.40;99.90;;;;;;5051715;28;20438;-78
2022/03/07 03:27:23;;;;;;;6.47;3.57;;;0.30;99.90;;;;;;5053469;28;20393;-78
2022/03/07 03:29:49;;;;;;;6.78;3.55;;;0.50;99.90;;;;;;5051238;28;20461;-78
2022/03/07 03:32:15;;;;;;;5.78;3.15;;;0.20;99.90;;;;;;5051717;28;20049;-79
2022/03/07 03:34:41;;;;;;;8.80;4.03;;;0.10;99.90;;;;;;5051906;28;20119;-79
2022/03/07 03:37:07;;;;;;;6.70;3.20;;;0.10;99.90;;;;;;5034935;28;20037;-78
2022/03/07 03:39:33;;;;;;;5.40;3.65;;;0.10;99.90;;;;;;5051537;28;20033;-78
2022/03/07 03:41:59;;;;;;;4.75;3.55;;;0.10;99.90;;;;;;5051137;28;20041;-78
2022/03/07 03:44:24;;;;;;;7.07;3.75;;;0.10;99.90;;;;;;5051609;28;20041;-79
2022/03/07 03:46:50;;;;;;;8.90;4.50;;;0.20;99.90;;;;;;5051268;28;20045;-79
2022/03/07 03:49:16;;;;;;;6.07;3.97;;;0.20;99.90;;;;;;5051478;28;20372;-79
2022/03/07 03:51:42;;;;;;;9.40;3.67;;;0.20;99.90;;;;;;5051734;28;20087;-79
2022/03/07 03:54:07;;;;;;;4.78;3.30;;;0.10;99.90;;;;;;5051045;28;20045;-79
2022/03/07 03:56:33;;;;;;;6.70;3.63;;;0.00;99.90;;;;;;5051079;28;20377;-79
2022/03/07 03:58:59;;;;;;;4.75;3.25;;;-0.10;99.90;;;;;;5050957;28;20108;-79
2022/03/07 04:01:24;;;;;;;7.93;3.95;;;-0.10;99.90;;;;;;5051322;28;20498;-79
2022/03/07 04:03:50;;;;;;;5.30;3.90;;;1.30;99.90;;;;;;5050739;28;20103;-79
2022/03/07 04:06:16;;;;;;;6.22;4.00;;;-0.10;99.90;;;;;;5051495;28;20097;-79
2022/03/07 04:08:46;;;;;;;10.90;4.57;;;-0.10;99.90;;;;;;5052261;28;20036;-79
2022/03/07 04:11:12;;;;;;;7.60;4.30;;;-0.10;99.90;;;;;;5051166;28;20044;-77
2022/03/07 04:13:38;;;;;;;7.90;4.53;;;-0.10;99.90;;;;;;5050891;28;20045;-78
2022/03/07 04:16:04;;;;;;;7.82;4.38;;;-0.10;99.90;;;;;;5050337;28;20053;-78
2022/03/07 04:18:29;;;;;;;5.72;3.95;;;-0.10;99.90;;;;;;5034194;28;20044;-78
2022/03/07 04:20:55;;;;;;;7.20;4.30;;;-0.10;99.90;;;;;;5050910;28;20381;-79
2022/03/07 04:23:22;;;;;;;8.90;4.50;;;0.20;99.90;;;;;;5051972;28;20040;-78
2022/03/07 04:25:48;;;;;;;6.18;4.05;;;-0.10;99.90;;;;;;5050351;28;20063;-78
2022/03/07 04:28:14;;;;;;;;;;;0.10;99.90;;;;;;5050980;28;20090;-78
2022/03/07 04:30:40;;;;;;;5.88;4.30;;;-0.10;99.90;;;;;;5050323;28;19929;-78
2022/03/07 04:33:07;;;;;;;;;;;-0.10;99.90;;;;;;5034243;28;20040;-78
2022/03/07 04:35:33;;;;;;;6.95;4.72;;;-0.20;99.90;;;;;;5050187;28;19921;-78
2022/03/07 04:38:00;;;;;;;9.55;4.63;;;-0.20;99.90;;;;;;5033786;28;21305;-79
2022/03/07 04:40:26;;;;;;;8.13;4.50;;;-0.20;99.90;;;;;;5051832;28;20091;-79
2022/03/07 04:42:52;;;;;;;6.90;4.07;;;-0.20;99.90;;;;;;5051382;28;20041;-79
2022/03/07 04:45:18;;;;;;;8.02;4.60;;;-0.30;99.90;;;;;;5050390;28;20052;-78
2022/03/07 04:47:44;;;;;;;5.38;4.10;;;-0.30;99.90;;;;;;5050272;28;20396;-78
2022/03/07 04:50:12;;;;;;;8.18;4.68;;;-0.40;99.90;;;;;;5050043;28;20055;-79
2022/03/07 04:52:39;;;;;;;7.50;4.38;;;-0.30;99.90;;;;;;5050259;28;20472;-79
2022/03/07 04:55:05;;;;;;;6.93;4.20;;;-0.40;99.90;;;;;;5049081;28;20033;-79
2022/03/07 04:57:31;;;;;;;;;;;-0.40;99.90;;;;;;5049703;28;20073;-80
2022/03/07 04:59:57;;;;;;;5.30;4.28;;;-0.40;99.90;;;;;;5049160;28;19987;-78
2022/03/07 05:02:22;;;;;;;7.55;4.47;;;-0.50;99.90;;;;;;5050060;28;20095;-78
2022/03/07 05:04:48;;;;;;;6.37;4.90;;;-0.50;99.90;;;;;;5049935;28;20508;-78
2022/03/07 05:07:13;;;;;;;7.88;4.63;;;-0.50;99.90;;;;;;5049753;28;20037;-78
2022/03/07 05:09:39;;;;;;;9.57;5.53;;;-0.50;99.90;;;;;;5030693;28;20391;-78
2022/03/07 05:12:05;;;;;;;10.80;5.45;;;-0.50;99.90;;;;;;5049738;28;20489;-78
2022/03/07 05:14:31;;;;;;;8.98;5.07;;;-0.50;99.90;;;;;;5051055;28;20396;-78
2022/03/07 05:16:57;;;;;;;8.13;4.82;;;-0.60;99.90;;;;;;5049668;28;20052;-79
2022/03/07 05:19:23;;;;;;;8.57;4.80;;;-0.60;99.90;;;;;;5049799;28;20145;-78
2022/03/07 05:21:49;;;;;;;9.90;5.20;;;-0.70;99.90;;;;;;5049533;28;20119;-78
2022/03/07 05:24:15;;;;;;;9.93;5.25;;;-0.70;99.90;;;;;;5050102;28;20116;-79
2022/03/07 05:26:41;;;;;;;6.85;4.93;;;-0.70;99.90;;;;;;5049471;28;20051;-77
2022/03/07 05:29:07;;;;;;;7.10;5.55;;;-0.70;99.90;;;;;;5032675;28;20053;-76
2022/03/07 05:31:32;;;;;;;7.30;4.78;;;-0.70;99.90;;;;;;5049730;28;20037;-77
2022/03/07 05:33:59;;;;;;;12.32;4.85;;;-0.80;99.90;;;;;;5049282;28;20496;-77
2022/03/07 05:36:25;;;;;;;8.93;5.20;;;-0.80;99.90;;;;;;5033182;28;20122;-79
2022/03/07 05:38:50;;;;;;;7.95;5.30;;;-0.80;99.90;;;;;;5049982;28;20037;-78
2022/03/07 05:41:16;;;;;;;8.02;4.90;;;-0.80;99.90;;;;;;5032524;28;20040;-76
2022/03/07 05:43:42;;;;;;;9.40;5.70;;;-0.80;99.90;;;;;;5049126;28;20439;-79
2022/03/07 05:46:08;;;;;;;7.53;4.85;;;-0.80;99.90;;;;;;5049477;28;20052;-79
2022/03/07 05:48:33;;;;;;;9.40;5.53;;;-0.80;99.90;;;;;;5032789;28;20040;-83
2022/03/07 05:50:59;;;;;;;9.07;5.22;;;-0.80;99.90;;;;;;5049569;28;20155;-82
2022/03/07 05:53:25;;;;;;;8.13;5.13;;;-0.80;99.90;;;;;;5016479;28;20123;-82
2022/03/07 05:55:52;;;;;;;9.93;5.03;;;-0.90;99.90;;;;;;5032790;28;20063;-82
2022/03/07 05:58:18;;;;;;;9.25;4.70;;;-0.90;99.90;;;;;;5032613;28;20037;-81
2022/03/07 06:00:44;;;;;;;;;;;0.00;99.90;;;;;;5049965;28;20540;-82
2022/03/07 06:03:10;;;;;;;8.50;5.07;;;-0.90;99.90;;;;;;5033210;28;19917;-82
2022/03/07 06:05:36;;;;;;;9.10;5.20;;;-0.90;99.90;;;;;;5032751;28;20037;-81
2022/03/07 06:08:02;;;;;;;6.82;4.60;;;0.10;99.90;;;;;;5032591;28;20067;-81
2022/03/07 06:10:28;;;;;;;12.85;5.65;;;-0.90;99.90;;;;;;5033113;28;20102;-81
2022/03/07 06:12:54;;;;;;;7.47;4.63;;;-0.90;99.90;;;;;;5035174;28;20041;-80
2022/03/07 06:15:20;;;;;;;8.23;4.50;;;-0.90;99.90;;;;;;5053013;28;20037;-81
2022/03/07 06:17:51;;;;;;;;;;;-1.00;99.90;;;;;;5054022;28;20128;-81
2022/03/07 06:20:17;;;;;;;7.70;4.57;;;-0.90;99.90;;;;;;5036422;28;19925;-81
2022/03/07 06:22:43;;;;;;;8.18;4.63;;;-0.90;99.90;;;;;;5053764;28;20512;-81
2022/03/07 06:25:09;;;;;;;9.45;5.15;;;-0.90;99.90;;;;;;5036231;28;20175;-81
2022/03/07 06:27:34;;;;;;;9.13;4.65;;;-0.90;99.90;;;;;;5036394;28;20075;-80
2022/03/07 06:30:00;;;;;;;7.67;4.57;;;-0.80;99.90;;;;;;5035914;28;20103;-81
2022/03/07 06:32:26;;;;;;;13.25;5.30;;;-0.80;99.90;;;;;;5019775;28;20291;-81
2022/03/07 06:34:52;;;;;;;7.75;4.70;;;-0.80;99.90;;;;;;5052998;28;20397;-82
2022/03/07 06:37:18;;;;;;;7.45;4.93;;;-0.80;99.90;;;;;;5036297;28;20041;-81
2022/03/07 06:39:44;;;;;;;7.63;4.32;;;-0.80;99.90;;;;;;5052790;28;20033;-81
2022/03/07 06:42:09;;;;;;;9.75;5.65;;;-0.80;99.90;;;;;;5052494;28;20029;-82
2022/03/07 06:44:39;;;;;;;8.23;5.53;;;-0.70;99.90;;;;;;5036015;28;20056;-82
2022/03/07 06:47:06;;;;;;;9.05;5.78;;;-0.70;99.90;;;;;;5052372;28;20045;-82
2022/03/07 06:49:32;;;;;;;7.82;5.28;;;0.00;99.90;;;;;;5052895;28;20045;-82
2022/03/07 06:51:57;;;;;;;10.65;5.93;;;-0.40;99.90;;;;;;5053038;28;20094;-82
2022/03/07 06:54:23;;;;;;;11.07;6.47;;;-0.40;99.90;;;;;;5052539;28;20124;-82
2022/03/07 06:56:49;;;;;;;11.30;6.50;;;-0.30;99.90;;;;;;5052438;28;20044;-81
2022/03/07 06:59:14;;;;;;;11.55;6.05;;;-0.20;99.90;;;;;;5035429;28;20280;-81
2022/03/07 07:01:40;;;;;;;13.27;7.05;;;-0.10;99.90;;;;;;5052287;28;20408;-81
2022/03/07 07:04:06;;;;;;;11.63;6.18;;;0.10;99.90;;;;;;5052048;28;20090;-81
2022/03/07 07:06:31;;;;;;;14.68;6.60;;;0.20;99.90;;;;;;5052241;28;20041;-82
2022/03/07 07:08:57;;;;;;;8.98;6.07;;;0.30;99.90;;;;;;5052608;28;20037;-82
2022/03/07 07:11:23;;;;;;;11.20;6.45;;;0.50;99.90;;;;;;5051911;28;20076;-82
2022/03/07 07:13:48;;;;;;;11.83;6.03;;;0.60;99.90;;;;;;5052038;28;20091;-82
2022/03/07 07:16:14;;;;;;;12.43;5.82;;;0.80;99.90;;;;;;5051700;28;20040;-82
2022/03/07 07:18:40;;;;;;;10.68;5.55;;;2.10;99.90;;;;;;5035569;28;20037;-82
2022/03/07 07:21:07;;;;;;;8.05;5.20;;;1.10;99.90;;;;;;5051673;28;20033;-82
2022/03/07 07:23:33;;;;;;;8.80;5.32;;;1.30;99.90;;;;;;5051597;28;20029;-82
2022/03/07 07:25:58;;;;;;;7.22;5.13;;;1.40;99.90;;;;;;5052294;28;20041;-82
2022/03/07 07:28:24;;;;;;;7.93;4.93;;;1.60;99.90;;;;;;5051517;28;20041;-82
2022/03/07 07:30:50;;;;;;;8.18;5.10;;;2.10;99.90;;;;;;5034876;28;20331;-82
2022/03/07 07:33:17;;;;;;;8.75;5.25;;;3.00;99.90;;;;;;5035115;28;20252;-82
2022/03/07 07:35:42;;;;;;;10.70;5.07;;;2.10;99.90;;;;;;5051734;28;20044;-81
2022/03/07 07:38:08;;;;;;;7.28;5.40;;;2.30;99.90;;;;;;5051896;28;20504;-81
2022/03/07 07:40:34;;;;;;;7.40;4.70;;;2.50;99.90;;;;;;5035228;28;20052;-82
2022/03/07 07:43:00;;;;;;;8.50;4.45;;;2.60;99.90;;;;;;5018799;28;20029;-81
2022/03/07 07:45:26;;;;;;;8.00;4.77;;;2.70;99.90;;;;;;5035146;28;20470;-81
2022/03/07 07:47:52;;;;;;;9.10;5.17;;;2.90;99.90;;;;;;5035213;28;20378;-82
2022/03/07 07:50:18;;;;;;;5.90;4.78;;;3.10;99.90;;;;;;5034859;28;20086;-82
2022/03/07 07:52:44;;;;;;;8.45;5.10;;;3.20;99.90;;;;;;5018652;28;20090;-82
2022/03/07 07:55:09;;;;;;;8.37;4.80;;;3.40;99.90;;;;;;5051339;28;20488;-81
2022/03/07 07:57:35;;;;;;;8.73;4.93;;;3.40;99.90;;;;;;5051626;28;20037;-82
2022/03/07 08:00:03;;;;;;;8.38;4.57;;;4.90;99.90;;;;;;5035268;28;20037;-83
2022/03/07 08:02:28;;;;;;;7.57;4.22;;;5.20;99.90;;;;;;5034642;28;20029;-82
2022/03/07 08:04:54;;;;;;;8.02;4.35;;;5.00;99.90;;;;;;5051809;28;20378;-83
2022/03/07 08:07:20;;;;;;;5.72;4.07;;;5.80;99.90;;;;;;5051455;28;20029;-83
2022/03/07 08:09:45;;;;;;;6.47;3.85;;;6.40;99.90;;;;;;5034957;28;20112;-84
2022/03/07 08:12:12;;;;;;;5.68;3.97;;;6.90;99.90;;;;;;5051074;28;20124;-82
2022/03/07 08:14:38;;;;;;;10.27;3.88;;;8.80;99.90;;;;;;5050709;28;20492;-82
2022/03/07 08:17:05;;;;;;;6.68;3.80;;;8.10;99.90;;;;;;5050606;28;20037;-83
2022/03/07 08:19:31;;;;;;;6.15;3.30;;;8.60;99.90;;;;;;5034351;28;20102;-83
2022/03/07 08:21:57;;;;;;;6.40;2.83;;;8.90;99.90;;;;;;5051255;28;20040;-83
2022/03/07 08:24:23;;;;;;;5.40;2.83;;;9.30;99.90;;;;;;5051076;28;20029;-84
2022/03/07 08:26:49;;;;;;;5.25;2.63;;;9.70;99.90;;;;;;5034558;28;20084;-83
2022/03/07 08:29:15;;;;;;;6.35;2.90;;;10.00;99.90;;;;;;5034180;28;20060;-83
2022/03/07 08:31:41;;;;;;;4.82;2.70;;;10.10;99.90;;;;;;5051062;28;20043;-83
2022/03/07 08:34:07;;;;;;;5.00;2.42;;;10.40;99.90;;;;;;5034020;28;20052;-83
2022/03/07 08:36:32;;;;;;;6.25;2.75;;;10.40;99.90;;;;;;5050012;28;20112;-83
2022/03/07 08:38:59;;;;;;;4.78;2.83;;;10.70;99.90;;;;;;5050933;28;20036;-83
2022/03/07 08:41:25;;;;;;;6.80;2.70;;;11.00;99.90;;;;;;5050697;28;20484;-84
2022/03/07 08:43:52;;;;;;;8.70;2.95;;;11.20;99.90;;;;;;5034193;28;20120;-84
2022/03/07 08:46:18;;;;;;;5.40;3.13;;;11.30;99.90;;;;;;5017546;28;20044;-83
2022/03/07 08:48:44;;;;;;;5.10;2.30;;;11.50;99.90;;;;;;5050406;28;20431;-84
2022/03/07 08:51:10;;;;;;;3.10;2.38;;;11.70;99.90;;;;;;5048260;28;20040;-83
2022/03/07 08:53:37;;;;;;;5.30;2.30;;;11.90;99.90;;;;;;5050453;28;20119;-84
2022/03/07 08:56:03;;;;;;;5.13;2.00;;;12.00;99.90;;;;;;5050507;28;20045;-83
2022/03/07 08:58:28;;;;;;;3.15;1.63;;;12.20;99.90;;;;;;5050168;28;20037;-84
2022/03/07 09:00:54;;;;;;;6.85;2.60;;;12.30;99.90;;;;;;5033940;28;20048;-84
2022/03/07 09:03:20;;;;;;;5.03;2.10;;;12.30;99.90;;;;;;5050357;28;20463;-83
2022/03/07 09:05:45;;;;;;;4.72;1.92;;;12.40;99.90;;;;;;5050098;28;20045;-83
2022/03/07 09:08:11;;;;;;;5.25;2.00;;;12.50;99.90;;;;;;5050286;28;20094;-84
2022/03/07 09:10:37;;;;;;;3.63;1.80;;;12.90;99.90;;;;;;5033792;28;20444;-84
2022/03/07 09:13:03;;;;;;;3.55;1.70;;;12.70;99.90;;;;;;5033778;28;20083;-84
2022/03/07 09:15:29;;;;;;;3.20;1.42;;;13.20;99.90;;;;;;5017039;28;20064;-84
2022/03/07 09:17:54;;;;;;;2.92;1.52;;;13.40;99.90;;;;;;5033115;28;20416;-84
2022/03/07 09:20:20;;;;;;;4.85;2.10;;;13.90;99.90;;;;;;5033716;28;20094;-84
2022/03/07 09:22:46;;;;;;;4.47;1.95;;;13.70;99.90;;;;;;5033456;28;20029;-83
2022/03/07 09:25:13;;;;;;;5.13;2.03;;;14.00;99.90;;;;;;5050278;28;20041;-84
2022/03/07 09:27:39;;;;;;;5.38;1.92;;;14.10;99.90;;;;;;5033206;28;20041;-84
2022/03/07 09:30:06;;;;;;;4.10;1.77;;;14.20;99.90;;;;;;5050021;28;20386;-85
2022/03/07 09:32:32;;;;;;;4.53;1.70;;;14.40;99.90;;;;;;5049709;28;20518;-83
2022/03/07 09:34:58;;;;;;;4.30;1.65;;;14.50;99.90;;;;;;5033358;28;20045;-84
2022/03/07 09:37:24;;;;;;;3.55;1.20;;;14.60;99.90;;;;;;5033041;28;20051;-84
2022/03/07 09:39:50;;;;;;;4.72;1.88;;;15.10;99.90;;;;;;5033605;28;20037;-84
2022/03/07 09:42:16;;;;;;;4.65;1.40;;;15.00;99.30;;;;;;5033252;28;20121;-84
2022/03/07 09:44:42;;;;;;;3.53;1.40;;;15.00;99.90;;;;;;5033174;28;20385;-84
2022/03/07 09:47:07;;;;;;;5.05;1.42;;;15.60;99.60;;;;;;5032970;28;20040;-84
2022/03/07 09:49:33;;;;;;;6.10;1.60;;;16.20;98.80;;;;;;5033077;28;20485;-84
2022/03/07 09:51:59;;;;;;;3.33;1.40;;;16.60;97.60;;;;;;5050063;28;20492;-84
2022/03/07 09:54:25;;;;;;;;;;;16.20;97.30;;;;;;5049790;28;20048;-84
2022/03/07 09:56:52;;;;;;;6.45;1.33;;;15.70;97.50;;;;;;5049518;28;20304;-84
2022/03/07 09:59:19;;;;;;;4.45;1.30;;;15.90;97.60;;;;;;5049704;28;20044;-84
2022/03/07 10:01:56;;;;;;;5.18;1.20;;;16.00;96.90;;;;;;5033020;28;20044;-84
2022/03/07 10:04:22;;;;;;;6.25;1.40;;;16.70;96.40;;;;;;5032781;28;20041;-84
2022/03/07 10:06:49;;;;;;;4.22;1.30;;;16.90;96.20;;;;;;5049712;28;20045;-84
2022/03/07 10:09:23;;;;;;;5.53;1.40;;;17.50;94.40;;;;;;5033102;28;20037;-84
2022/03/07 10:11:54;;;;;;;3.40;1.20;;;17.60;92.60;;;;;;5031561;28;20048;-85
2022/03/07 10:14:42;;;;;;;4.30;1.23;;;17.00;94.10;;;;;;5046980;28;20126;-84
2022/03/07 10:17:26;;;;;;;6.63;1.30;;;15.70;96.10;;;;;;5049600;28;20041;-84
2022/03/07 10:19:54;;;;;;;3.72;1.20;;;15.80;96.10;;;;;;5049358;28;20045;-83
2022/03/07 10:22:23;;;;;;;4.30;1.25;;;16.30;97.00;;;;;;5049675;28;20060;-83
2022/03/07 10:25:00;;;;;;;3.08;1.30;;;16.50;95.40;;;;;;5049536;28;20128;-84
2022/03/07 10:27:33;;;;;;;3.75;1.30;;;16.00;95.40;;;;;;5032594;28;20102;-85
2022/03/07 10:30:00;;;;;;;3.38;1.27;;;16.20;96.80;;;;;;5032820;28;20056;-84
2022/03/07 10:32:26;;;;;;;5.22;1.30;;;15.80;97.30;;;;;;5049554;28;20527;-84
2022/03/07 10:34:53;;;;;;;7.88;1.75;;;16.60;96.70;;;;;;5049523;28;20040;-83
2022/03/07 10:37:19;;;;;;;5.55;1.55;;;16.90;92.40;;;;;;5016897;28;20515;-84
2022/03/07 10:39:52;;;;;;;3.10;1.25;;;16.60;91.90;;;;;;5032855;28;20041;-83
2022/03/07 10:42:19;;;;;;;5.72;1.30;;;16.10;92.00;;;;;;5049583;28;20072;-84
2022/03/07 10:44:45;;;;;;;4.60;1.25;;;16.40;92.10;;;;;;5033246;28;20717;-84
2022/03/07 10:47:15;;;;;;;;;;;17.10;91.80;;;;;;5033298;28;20037;-83
2022/03/07 10:49:59;;;;;;;6.30;1.60;;;15.80;90.20;;;;;;5048345;28;19917;-84
2022/03/07 10:52:34;;;;;;;3.10;1.33;;;14.60;92.30;;;;;;5048295;28;20037;-84
2022/03/07 10:55:00;;;;;;;5.45;1.35;;;14.20;92.90;;;;;;5048651;28;20402;-83
2022/03/07 10:57:25;;;;;;;2.40;1.15;;;14.40;93.70;;;;;;5032124;28;20033;-84
2022/03/07 10:59:51;;;;;;;2.28;1.20;;;15.10;93.10;;;;;;5035804;28;20044;-85
2022/03/07 11:02:17;;;;;;;4.30;1.27;;;15.60;92.90;;;;;;5035985;28;20481;-85
2022/03/07 11:04:44;;;;;;;;;;;16.00;92.40;;;;;;5019674;28;20037;-84
2022/03/07 11:07:12;;;;;;;3.67;1.08;;;16.60;91.50;;;;;;5052440;28;19971;-85
2022/03/07 11:09:39;;;;;;;4.70;1.40;;;16.80;89.30;;;;;;5052355;28;20068;-84
2022/03/07 11:12:09;;;;;;;3.72;1.40;;;16.50;89.50;;;;;;5035804;28;20033;-84
2022/03/07 11:14:36;;;;;;;3.95;1.05;;;16.80;90.80;;;;;;5052122;28;20536;-85
2022/03/07 11:17:02;;;;;;;3.05;0.95;;;16.90;89.10;;;;;;5035663;28;20032;-85
2022/03/07 11:19:28;;;;;;;4.07;1.13;;;16.70;79.30;;;;;;5035386;28;20082;-84
2022/03/07 11:21:55;;;;;;;;;;;17.30;77.70;;;;;;5036220;28;20068;-84
2022/03/07 11:24:24;;;;;;;2.45;0.80;;;17.10;79.20;;;;;;5036025;28;19966;-84
2022/03/07 11:26:52;;;;;;;4.13;1.00;;;16.90;78.00;;;;;;5035638;28;20041;-84
2022/03/07 11:29:19;;;;;;;3.58;1.10;;;16.30;77.90;;;;;;5052091;28;20068;-84
2022/03/07 11:31:46;;;;;;;3.20;1.20;;;15.70;83.30;;;;;;5051702;28;20041;-85
2022/03/07 11:34:13;;;;;;;4.28;0.80;;;15.60;80.20;;;;;;5052103;28;20036;-84
2022/03/07 11:36:42;;;;;;;2.60;1.00;;;15.50;82.00;;;;;;5035153;28;20045;-85
2022/03/07 11:39:08;;;;;;;3.25;1.10;;;15.60;84.20;;;;;;5052142;28;20037;-85
2022/03/07 11:41:38;;;;;;;2.95;0.82;;;15.20;80.40;;;;;;5034942;28;20052;-85
2022/03/07 11:44:10;;;;;;;1.35;0.60;;;14.50;79.60;;;;;;5052176;28;20373;-85
2022/03/07 11:46:41;;;;;;;2.08;0.70;;;14.10;80.30;;;;;;5049203;28;20040;-85
2022/03/07 11:49:09;;;;;;;2.22;0.82;;;13.50;81.80;;;;;;5051722;28;20123;-85
2022/03/07 11:51:37;;;;;;;5.30;0.88;;;13.90;87.00;;;;;;5033065;28;20076;-85
2022/03/07 11:54:05;;;;;;;4.07;0.80;;;14.10;85.50;;;;;;5035081;28;20114;-86
2022/03/07 11:56:36;;;;;;;1.98;0.70;;;15.00;80.90;;;;;;5051108;28;20127;-86
2022/03/07 11:59:05;;;;;;;3.78;0.93;;;15.70;80.80;;;;;;5051992;28;20037;-86
2022/03/07 12:01:32;;;;;;;3.42;0.98;;;16.50;79.30;;;;;;5051136;28;20043;-86
2022/03/07 12:04:09;;;;;;;2.30;0.68;;;16.40;77.00;;;;;;5051427;28;20037;-85
2022/03/07 12:06:47;;;;;;;3.90;0.93;;;16.40;78.20;;;;;;5051173;28;20072;-86
2022/03/07 12:09:33;;;;;;;2.28;0.68;;;16.40;77.60;;;;;;5050117;28;20068;-85
2022/03/07 12:12:15;;;;;;;2.47;0.80;;;16.40;74.90;;;;;;5033298;28;20041;-87
2022/03/07 12:14:43;;;;;;;2.30;1.13;;;16.80;75.30;;;;;;5049784;28;20128;-86
2022/03/07 12:17:15;;;;;;;2.45;1.00;;;16.90;75.80;;;;;;5033621;28;20041;-86
2022/03/07 12:19:42;;;;;;;2.00;0.60;;;17.60;73.60;;;;;;5031865;28;20040;-86
2022/03/07 12:22:16;;;;;;;1.25;0.60;;;17.90;70.80;;;;;;5051305;28;20043;-85
2022/03/07 12:24:43;;;;;;;4.60;0.77;;;16.80;70.60;;;;;;5034419;28;20095;-86
2022/03/07 12:27:10;;;;;;;2.60;0.90;;;16.60;72.00;;;;;;5018017;28;20048;-86
2022/03/07 12:29:40;;;;;;;1.98;0.80;;;16.40;72.40;;;;;;5033917;28;20416;-86
2022/03/07 12:32:07;;;;;;;3.67;0.75;;;17.20;71.90;;;;;;5034418;28;20408;-86
2022/03/07 12:34:35;;;;;;;2.92;0.70;;;16.90;72.70;;;;;;5050704;28;20072;-86
2022/03/07 12:37:08;;;;;;;2.25;0.60;;;16.30;70.60;;;;;;5034212;28;20052;-85
2022/03/07 12:39:48;;;;;;;0.88;0.60;;;16.00;67.50;;;;;;5050616;28;20072;-86
2022/03/07 12:42:15;;;;;;;2.83;0.70;;;15.30;70.30;;;;;;5048914;28;20427;-85
2022/03/07 12:44:41;;;;;;;1.45;0.70;;;15.00;71.40;;;;;;5050477;28;20033;-86
2022/03/07 12:47:08;;;;;;;4.47;0.80;;;15.20;71.80;;;;;;5034115;28;20041;-86
2022/03/07 12:49:34;;;;;;;2.22;0.80;;;15.90;72.60;;;;;;5033831;28;20044;-86
2022/03/07 12:52:06;;;;;;;3.13;1.35;;;15.80;73.30;;;;;;5050845;28;20037;-87